createdAt,value
2017-10-01T00:01:24.547Z,12.80
2017-10-01T00:03:52.487Z,12.80
2017-10-01T00:06:19.933Z,12.80
2017-10-01T00:08:47.390Z,12.80
2017-10-01T00:11:14.827Z,12.80
2017-10-01T00:13:42.806Z,12.80
2017-10-01T00:16:10.269Z,12.90
2017-10-01T00:18:38.416Z,12.90
2017-10-01T00:21:06.627Z,12.90
2017-10-01T00:23:34.087Z,12.90
2017-10-01T00:26:01.643Z,13.00
2017-10-01T00:28:29.093Z,13.00
2017-10-01T00:30:57.071Z,12.90
2017-10-01T00:33:24.846Z,12.90
2017-10-01T00:35:52.300Z,12.80
2017-10-01T00:38:20.364Z,12.90
2017-10-01T00:40:48.027Z,12.90
2017-10-01T00:43:15.487Z,12.90
2017-10-01T00:45:43.260Z,12.90
2017-10-01T00:48:10.717Z,12.90
2017-10-01T00:50:38.487Z,12.90
2017-10-01T00:53:05.939Z,12.80
2017-10-01T00:55:34.052Z,12.80
2017-10-01T00:58:02.272Z,12.90
2017-10-01T01:00:29.740Z,12.80
2017-10-01T01:02:58.015Z,12.80
2017-10-01T01:05:25.451Z,12.80
2017-10-01T01:07:53.463Z,12.80
2017-10-01T01:10:22.231Z,12.80
2017-10-01T01:12:49.686Z,12.70
2017-10-01T01:15:17.141Z,12.80
2017-10-01T01:17:44.587Z,12.80
2017-10-01T01:20:12.255Z,12.80
2017-10-01T01:22:40.603Z,12.60
2017-10-01T01:25:08.055Z,12.60
2017-10-01T01:27:35.494Z,12.60
2017-10-01T01:30:03.379Z,12.60
2017-10-01T01:32:30.831Z,12.60
2017-10-01T01:34:58.291Z,12.60
2017-10-01T01:37:25.738Z,12.60
2017-10-01T01:39:53.194Z,12.70
2017-10-01T01:42:21.627Z,12.60
2017-10-01T01:44:49.070Z,12.50
2017-10-01T01:47:16.649Z,12.50
2017-10-01T01:49:44.091Z,12.50
2017-10-01T01:52:11.938Z,12.40
2017-10-01T01:54:39.509Z,12.40
2017-10-01T01:57:07.072Z,12.40
2017-10-01T01:59:34.524Z,12.30
2017-10-01T02:02:01.972Z,12.40
2017-10-01T02:04:29.423Z,12.40
2017-10-01T02:06:56.872Z,12.40
2017-10-01T02:09:24.331Z,12.40
2017-10-01T02:11:51.768Z,12.40
2017-10-01T02:14:19.692Z,12.40
2017-10-01T02:16:47.130Z,12.30
2017-10-01T02:19:14.577Z,12.40
2017-10-01T02:21:42.026Z,12.50
2017-10-01T02:24:09.475Z,12.50
2017-10-01T02:26:36.943Z,12.50
2017-10-01T02:29:04.395Z,12.60
2017-10-01T02:31:31.852Z,12.60
2017-10-01T02:33:59.301Z,12.50
2017-10-01T02:36:26.752Z,12.50
2017-10-01T02:38:54.200Z,12.40
2017-10-01T02:41:21.655Z,12.40
2017-10-01T02:43:50.392Z,12.50
2017-10-01T02:46:17.845Z,12.50
2017-10-01T02:48:45.291Z,12.50
2017-10-01T02:51:13.468Z,12.40
2017-10-01T02:53:40.919Z,12.40
2017-10-01T02:56:08.376Z,12.40
2017-10-01T02:58:35.831Z,12.50
2017-10-01T03:01:03.287Z,12.50
2017-10-01T03:03:31.372Z,12.50
2017-10-01T03:05:58.815Z,12.40
2017-10-01T03:08:26.266Z,12.40
2017-10-01T03:10:54.549Z,12.40
2017-10-01T03:13:22.091Z,12.50
2017-10-01T03:15:49.548Z,12.50
2017-10-01T03:18:17.003Z,12.50
2017-10-01T03:20:44.455Z,12.50
2017-10-01T03:23:13.342Z,12.50
2017-10-01T03:25:40.806Z,12.50
2017-10-01T03:28:08.808Z,12.30
2017-10-01T03:30:37.025Z,12.40
2017-10-01T03:33:04.481Z,12.40
2017-10-01T03:35:31.918Z,12.30
2017-10-01T03:37:59.368Z,12.30
2017-10-01T03:40:27.919Z,12.10
2017-10-01T03:42:55.584Z,12.10
2017-10-01T03:45:23.023Z,12.00
2017-10-01T03:47:50.478Z,11.90
2017-10-01T03:50:17.919Z,12.00
2017-10-01T03:52:46.191Z,12.00
2017-10-01T03:55:13.635Z,11.90
2017-10-01T03:57:41.091Z,12.00
2017-10-01T04:00:08.549Z,12.00
2017-10-01T04:02:36.005Z,12.10
2017-10-01T04:05:03.460Z,12.10
2017-10-01T04:07:30.915Z,12.10
2017-10-01T04:09:58.888Z,12.10
2017-10-01T04:12:26.343Z,12.10
2017-10-01T04:14:53.795Z,12.10
2017-10-01T04:17:21.245Z,12.00
2017-10-01T04:19:48.711Z,12.10
2017-10-01T04:22:16.166Z,12.10
2017-10-01T04:24:44.453Z,12.00
2017-10-01T04:27:11.896Z,12.00
2017-10-01T04:29:39.351Z,11.90
2017-10-01T04:32:06.808Z,11.80
2017-10-01T04:34:34.264Z,11.80
2017-10-01T04:37:01.715Z,11.90
2017-10-01T04:39:29.155Z,11.90
2017-10-01T04:41:56.603Z,11.90
2017-10-01T04:44:24.841Z,11.80
2017-10-01T04:46:52.288Z,11.70
2017-10-01T04:49:19.756Z,11.70
2017-10-01T04:51:47.215Z,11.70
2017-10-01T04:54:14.671Z,11.80
2017-10-01T04:56:42.116Z,11.90
2017-10-01T04:59:09.587Z,11.90
2017-10-01T05:01:37.041Z,11.90
2017-10-01T05:04:04.518Z,11.90
2017-10-01T05:06:32.735Z,11.80
2017-10-01T05:09:00.188Z,11.80
2017-10-01T05:11:28.239Z,11.60
2017-10-01T05:13:55.683Z,11.70
2017-10-01T05:16:23.137Z,11.40
2017-10-01T05:18:51.387Z,11.50
2017-10-01T05:21:18.843Z,11.40
2017-10-01T05:23:46.295Z,11.60
2017-10-01T05:26:13.754Z,11.70
2017-10-01T05:28:41.206Z,11.60
2017-10-01T05:31:08.658Z,11.40
2017-10-01T05:33:36.119Z,11.50
2017-10-01T05:36:04.697Z,11.50
2017-10-01T05:38:32.144Z,11.60
2017-10-01T05:40:59.659Z,11.60
2017-10-01T05:43:27.138Z,11.70
2017-10-01T05:45:54.600Z,11.80
2017-10-01T05:48:22.072Z,11.80
2017-10-01T05:50:49.544Z,11.90
2017-10-01T05:53:16.997Z,11.90
2017-10-01T05:55:44.439Z,11.90
2017-10-01T05:58:11.899Z,12.00
2017-10-01T06:00:39.370Z,12.00
2017-10-01T06:03:06.826Z,11.80
2017-10-01T06:05:34.656Z,11.80
2017-10-01T06:08:02.106Z,11.90
2017-10-01T06:10:29.560Z,12.00
2017-10-01T06:12:57.021Z,12.00
2017-10-01T06:15:24.459Z,12.10
2017-10-01T06:17:51.911Z,12.20
2017-10-01T06:20:19.696Z,12.20
2017-10-01T06:22:47.151Z,12.10
2017-10-01T06:25:14.606Z,12.30
2017-10-01T06:27:42.063Z,12.30
2017-10-01T06:30:09.512Z,12.30
2017-10-01T06:32:37.059Z,12.30
2017-10-01T06:35:04.620Z,12.40
2017-10-01T06:37:32.521Z,12.40
2017-10-01T06:39:59.982Z,12.50
2017-10-01T06:42:27.430Z,12.50
2017-10-01T06:44:54.884Z,12.40
2017-10-01T06:47:22.362Z,12.60
2017-10-01T06:49:49.946Z,12.40
2017-10-01T06:52:18.979Z,12.90
2017-10-01T06:54:47.267Z,13.20
2017-10-01T06:57:14.739Z,13.20
2017-10-01T06:59:42.191Z,13.00
2017-10-01T07:02:09.648Z,13.20
2017-10-01T07:04:37.095Z,13.20
2017-10-01T07:07:04.544Z,13.30
2017-10-01T07:09:31.991Z,13.20
2017-10-01T07:11:59.435Z,13.20
2017-10-01T07:14:26.902Z,13.70
2017-10-01T07:16:54.363Z,13.70
2017-10-01T07:19:21.819Z,14.00
2017-10-01T07:21:49.275Z,13.80
2017-10-01T07:24:16.811Z,13.90
2017-10-01T07:26:44.263Z,13.90
2017-10-01T07:29:12.976Z,13.90
2017-10-01T07:31:40.438Z,13.80
2017-10-01T07:34:07.888Z,13.90
2017-10-01T07:36:35.359Z,14.50
2017-10-01T07:39:03.335Z,14.90
2017-10-01T07:41:30.792Z,14.30
2017-10-01T07:43:58.247Z,14.00
2017-10-01T07:46:25.695Z,14.30
2017-10-01T07:48:53.135Z,14.70
2017-10-01T07:51:20.591Z,14.70
2017-10-01T07:53:48.031Z,14.80
2017-10-01T07:56:15.487Z,15.00
2017-10-01T07:58:42.943Z,15.90
2017-10-01T08:01:10.396Z,17.00
2017-10-01T08:03:37.852Z,18.10
2017-10-01T08:06:05.304Z,18.90
2017-10-01T08:08:32.747Z,19.90
2017-10-01T08:11:01.028Z,19.30
2017-10-01T08:13:30.176Z,19.00
2017-10-01T08:15:57.688Z,19.00
2017-10-01T08:18:25.168Z,17.30
2017-10-01T08:20:52.626Z,16.80
2017-10-01T08:23:20.082Z,17.20
2017-10-01T08:25:47.523Z,16.50
2017-10-01T08:28:14.976Z,15.60
2017-10-01T08:30:42.419Z,15.70
2017-10-01T08:33:10.653Z,19.50
2017-10-01T08:35:38.469Z,19.50
2017-10-01T08:38:05.928Z,20.50
2017-10-01T08:40:34.145Z,18.90
2017-10-01T08:43:01.604Z,18.90
2017-10-01T08:45:29.336Z,18.70
2017-10-01T08:47:57.222Z,17.30
2017-10-01T08:50:25.039Z,17.30
2017-10-01T08:52:53.282Z,17.40
2017-10-01T08:55:20.723Z,17.40
2017-10-01T08:57:48.591Z,18.40
2017-10-01T09:00:16.079Z,19.90
2017-10-01T09:02:43.543Z,19.50
2017-10-01T09:05:11.780Z,21.40
2017-10-01T09:07:39.234Z,21.40
2017-10-01T09:10:06.691Z,20.20
2017-10-01T09:12:34.294Z,20.20
2017-10-01T09:15:02.552Z,18.80
2017-10-01T09:17:29.997Z,18.80
2017-10-01T09:19:58.254Z,18.20
2017-10-01T09:22:25.711Z,18.10
2017-10-01T09:24:53.167Z,17.60
2017-10-01T09:27:20.616Z,18.10
2017-10-01T09:29:48.072Z,19.30
2017-10-01T09:32:15.511Z,17.60
2017-10-01T09:34:42.968Z,19.00
2017-10-01T09:37:10.531Z,18.90
2017-10-01T09:39:37.984Z,18.60
2017-10-01T09:42:05.438Z,18.40
2017-10-01T09:44:32.896Z,19.30
2017-10-01T09:47:01.104Z,21.40
2017-10-01T09:49:28.555Z,21.40
2017-10-01T09:51:56.008Z,20.40
2017-10-01T09:54:23.461Z,19.10
2017-10-01T09:56:51.715Z,18.60
2017-10-01T09:59:19.171Z,18.60
2017-10-01T10:01:46.627Z,20.90
2017-10-01T10:04:14.086Z,18.90
2017-10-01T10:06:42.067Z,18.40
2017-10-01T10:09:09.529Z,21.20
2017-10-01T10:11:36.993Z,22.50
2017-10-01T10:14:04.439Z,23.30
2017-10-01T10:16:31.947Z,22.80
2017-10-01T10:19:00.191Z,22.50
2017-10-01T10:21:27.643Z,22.50
2017-10-01T10:23:55.098Z,23.40
2017-10-01T10:26:22.554Z,23.40
2017-10-01T10:28:50.001Z,22.90
2017-10-01T10:31:17.455Z,19.80
2017-10-01T10:33:44.906Z,20.70
2017-10-01T10:36:12.365Z,20.60
2017-10-01T10:38:39.812Z,20.80
2017-10-01T10:41:07.256Z,19.40
2017-10-01T10:43:34.755Z,18.60
2017-10-01T10:46:02.218Z,18.00
2017-10-01T10:48:29.660Z,17.60
2017-10-01T10:50:57.103Z,19.20
2017-10-01T10:53:24.559Z,21.70
2017-10-01T10:55:52.015Z,22.60
2017-10-01T10:58:19.471Z,23.90
2017-10-01T11:00:46.931Z,24.60
2017-10-01T11:03:14.388Z,23.60
2017-10-01T11:05:41.852Z,23.90
2017-10-01T11:08:09.298Z,23.60
2017-10-01T11:10:36.742Z,23.40
2017-10-01T11:13:04.204Z,24.10
2017-10-01T11:15:31.648Z,24.70
2017-10-01T11:17:59.123Z,24.20
2017-10-01T11:20:26.581Z,24.60
2017-10-01T11:22:54.039Z,22.80
2017-10-01T11:25:25.234Z,22.50
2017-10-01T11:27:52.687Z,21.60
2017-10-01T11:30:20.900Z,21.10
2017-10-01T11:32:48.346Z,21.00
2017-10-01T11:35:15.795Z,22.40
2017-10-01T11:37:43.238Z,22.80
2017-10-01T11:40:10.716Z,23.20
2017-10-01T11:42:38.167Z,23.50
2017-10-01T11:45:05.625Z,21.20
2017-10-01T11:47:33.080Z,21.70
2017-10-01T11:50:00.531Z,22.40
2017-10-01T11:52:28.743Z,20.40
2017-10-01T11:54:56.199Z,20.30
2017-10-01T11:57:23.639Z,19.90
2017-10-01T11:59:51.095Z,21.20
2017-10-01T12:02:18.538Z,21.50
2017-10-01T12:04:46.578Z,22.30
2017-10-01T12:07:14.780Z,23.40
2017-10-01T12:09:42.234Z,23.40
2017-10-01T12:12:09.706Z,22.80
2017-10-01T12:14:37.142Z,22.60
2017-10-01T12:17:04.641Z,22.00
2017-10-01T12:19:32.092Z,22.90
2017-10-01T12:21:59.543Z,23.80
2017-10-01T12:24:26.982Z,24.00
2017-10-01T12:26:55.051Z,22.40
2017-10-01T12:29:22.496Z,21.40
2017-10-01T12:31:50.543Z,20.80
2017-10-01T12:34:18.759Z,20.10
2017-10-01T12:36:46.220Z,20.10
2017-10-01T12:39:13.667Z,19.90
2017-10-01T12:41:41.123Z,20.30
2017-10-01T12:44:08.739Z,21.50
2017-10-01T12:46:36.956Z,20.30
2017-10-01T12:49:04.467Z,20.30
2017-10-01T12:51:32.679Z,18.80
2017-10-01T12:54:00.122Z,18.70
2017-10-01T12:56:27.600Z,18.90
2017-10-01T12:58:55.082Z,19.60
2017-10-01T13:04:28.690Z,20.80
2017-10-01T13:06:56.143Z,21.50
2017-10-01T13:09:23.592Z,21.80
2017-10-01T13:11:51.251Z,21.90
2017-10-01T13:14:18.710Z,22.20
2017-10-01T13:16:46.164Z,22.30
2017-10-01T13:19:13.603Z,22.10
2017-10-01T13:21:41.982Z,19.40
2017-10-01T13:24:09.443Z,19.00
2017-10-01T13:26:36.891Z,19.30
2017-10-01T13:29:04.351Z,19.00
2017-10-01T13:31:31.804Z,19.00
2017-10-01T13:33:59.267Z,19.20
2017-10-01T13:36:26.719Z,19.60
2017-10-01T13:38:54.174Z,18.60
2017-10-01T13:41:21.630Z,18.00
2017-10-01T13:43:49.087Z,18.80
2017-10-01T13:46:16.543Z,19.20
2017-10-01T13:48:44.004Z,19.70
2017-10-01T13:51:11.455Z,20.10
2017-10-01T13:53:38.918Z,20.40
2017-10-01T13:56:06.373Z,20.50
2017-10-01T13:58:33.954Z,19.90
2017-10-01T14:01:01.411Z,19.70
2017-10-01T14:03:28.957Z,19.70
2017-10-01T14:05:56.437Z,19.50
2017-10-01T14:08:23.878Z,19.70
2017-10-01T14:10:51.334Z,19.70
2017-10-01T14:13:18.786Z,19.10
2017-10-01T14:15:46.222Z,18.90
2017-10-01T14:18:13.704Z,18.90
2017-10-01T14:20:41.159Z,18.60
2017-10-01T14:23:08.602Z,18.80
2017-10-01T14:25:36.052Z,18.30
2017-10-01T14:28:03.490Z,18.50
2017-10-01T14:30:36.637Z,18.70
2017-10-01T14:33:04.082Z,18.70
2017-10-01T14:35:31.526Z,18.50
2017-10-01T14:37:58.983Z,18.70
2017-10-01T14:40:26.431Z,18.80
2017-10-01T14:42:53.879Z,19.00
2017-10-01T14:45:21.330Z,19.10
2017-10-01T14:47:48.785Z,19.20
2017-10-01T14:50:16.243Z,19.20
2017-10-01T14:52:43.719Z,19.10
2017-10-01T14:55:11.279Z,17.90
2017-10-01T14:57:38.714Z,17.90
2017-10-01T15:00:06.279Z,18.00
2017-10-01T15:02:34.770Z,18.20
2017-10-01T15:05:02.219Z,18.10
2017-10-01T15:07:29.668Z,18.10
2017-10-01T15:09:57.141Z,18.00
2017-10-01T15:12:24.615Z,17.90
2017-10-01T15:14:52.060Z,17.80
2017-10-01T15:17:19.499Z,17.70
2017-10-01T15:19:47.734Z,17.60
2017-10-01T15:22:15.951Z,17.80
2017-10-01T15:24:43.797Z,17.80
2017-10-01T15:27:11.259Z,17.80
2017-10-01T15:29:38.715Z,17.80
2017-10-01T15:32:06.172Z,17.80
2017-10-01T15:34:33.632Z,17.70
2017-10-01T15:37:01.086Z,17.70
2017-10-01T15:39:28.538Z,17.60
2017-10-01T15:41:55.967Z,17.40
2017-10-01T15:44:24.183Z,17.40
2017-10-01T15:46:51.640Z,17.40
2017-10-01T15:49:19.083Z,17.20
2017-10-01T15:51:46.538Z,17.20
2017-10-01T15:54:13.974Z,17.20
2017-10-01T15:56:41.423Z,17.20
2017-10-01T15:59:09.634Z,17.20
2017-10-01T16:01:37.079Z,17.10
2017-10-01T16:04:04.539Z,17.10
2017-10-01T16:06:32.000Z,17.20
2017-10-01T16:08:59.478Z,17.10
2017-10-01T16:11:26.939Z,17.10
2017-10-01T16:13:54.439Z,17.10
2017-10-01T16:16:22.659Z,17.00
2017-10-01T16:18:50.107Z,17.00
2017-10-01T16:21:17.573Z,16.90
2017-10-01T16:23:45.021Z,16.90
2017-10-01T16:26:12.467Z,16.80
2017-10-01T16:28:39.926Z,16.50
2017-10-01T16:31:07.383Z,15.90
2017-10-01T16:33:34.879Z,15.80
2017-10-01T16:36:02.330Z,15.90
2017-10-01T16:38:30.572Z,15.70
2017-10-01T16:40:58.045Z,15.60
2017-10-01T16:43:25.475Z,15.50
2017-10-01T16:45:52.911Z,15.40
2017-10-01T16:48:20.423Z,15.30
2017-10-01T16:50:47.884Z,14.90
2017-10-01T16:53:15.335Z,14.50
2017-10-01T16:55:42.822Z,14.50
2017-10-01T16:58:11.099Z,13.90
2017-10-01T17:00:39.308Z,13.90
2017-10-01T17:03:06.760Z,13.80
2017-10-01T17:05:35.439Z,13.80
2017-10-01T17:08:02.879Z,13.80
2017-10-01T17:10:30.315Z,13.80
2017-10-01T17:12:58.554Z,13.00
2017-10-01T17:15:26.013Z,13.00
2017-10-01T17:17:53.544Z,12.80
2017-10-01T17:20:20.994Z,12.90
2017-10-01T17:22:48.463Z,12.90
2017-10-01T17:25:15.915Z,12.90
2017-10-01T17:27:43.368Z,12.90
2017-10-01T17:30:10.810Z,12.60
2017-10-01T17:32:38.247Z,12.60
2017-10-01T17:35:06.468Z,12.70
2017-10-01T17:37:33.923Z,12.70
2017-10-01T17:40:01.375Z,12.60
2017-10-01T17:42:28.879Z,12.60
2017-10-01T17:44:56.338Z,12.50
2017-10-01T17:47:23.775Z,12.50
2017-10-01T17:49:51.602Z,12.40
2017-10-01T17:52:19.052Z,12.30
2017-10-01T17:54:46.487Z,12.30
2017-10-01T17:57:15.455Z,12.00
2017-10-01T17:59:42.911Z,12.00
2017-10-01T18:02:10.372Z,12.00
2017-10-01T18:04:37.811Z,12.00
2017-10-01T18:07:05.261Z,12.10
2017-10-01T18:09:32.699Z,12.10
2017-10-01T18:12:00.870Z,12.00
2017-10-01T18:14:28.322Z,12.10
2017-10-01T18:16:55.816Z,11.90
2017-10-01T18:19:23.259Z,11.90
2017-10-01T18:21:50.725Z,11.90
2017-10-01T18:24:18.191Z,11.80
2017-10-01T18:26:45.906Z,11.70
2017-10-01T18:29:15.047Z,11.50
2017-10-01T18:31:42.497Z,11.50
2017-10-01T18:34:09.931Z,11.60
2017-10-01T18:36:37.378Z,11.60
2017-10-01T18:39:04.823Z,11.70
2017-10-01T18:41:32.335Z,11.60
2017-10-01T18:43:59.784Z,11.40
2017-10-01T18:46:27.244Z,11.40
2017-10-01T18:48:54.683Z,11.20
2017-10-01T18:51:22.148Z,11.10
2017-10-01T18:53:49.583Z,11.20
2017-10-01T18:56:17.874Z,11.20
2017-10-01T18:58:45.327Z,10.90
2017-10-01T19:01:12.820Z,10.80
2017-10-01T19:03:41.063Z,10.50
2017-10-01T19:06:08.589Z,10.50
2017-10-01T19:08:36.053Z,10.50
2017-10-01T19:11:03.498Z,10.60
2017-10-01T19:13:30.960Z,10.60
2017-10-01T19:15:58.412Z,10.60
2017-10-01T19:18:26.732Z,10.50
2017-10-01T19:20:54.187Z,10.40
2017-10-01T19:23:21.649Z,10.50
2017-10-01T19:25:49.106Z,10.50
2017-10-01T19:28:18.179Z,10.40
2017-10-01T19:30:45.635Z,10.40
2017-10-01T19:33:13.091Z,10.40
2017-10-01T19:35:40.555Z,10.50
2017-10-01T19:38:08.019Z,10.40
2017-10-01T19:40:35.601Z,10.40
2017-10-01T19:43:03.843Z,10.30
2017-10-01T19:45:31.297Z,10.30
2017-10-01T19:47:58.774Z,10.30
2017-10-01T19:50:26.238Z,10.40
2017-10-01T19:52:54.463Z,10.40
2017-10-01T19:55:21.916Z,10.40
2017-10-01T19:57:49.377Z,10.50
2017-10-01T20:00:16.824Z,10.30
2017-10-01T20:02:44.280Z,10.30
2017-10-01T20:05:11.764Z,10.30
2017-10-01T20:07:39.199Z,10.40
2017-10-01T20:10:06.651Z,10.30
2017-10-01T20:12:34.131Z,10.30
2017-10-01T20:15:01.595Z,10.30
2017-10-01T20:17:29.042Z,10.30
2017-10-01T20:19:56.497Z,10.20
2017-10-01T20:22:23.946Z,10.20
2017-10-01T20:24:51.407Z,10.10
2017-10-01T20:27:18.861Z,10.00
2017-10-01T20:29:46.319Z,10.00
2017-10-01T20:32:13.765Z,10.00
2017-10-01T20:34:41.215Z,10.10
2017-10-01T20:37:08.659Z,10.20
2017-10-01T20:39:36.115Z,10.20
2017-10-01T20:42:03.571Z,10.20
2017-10-01T20:44:31.016Z,10.30
2017-10-01T20:46:58.464Z,10.30
2017-10-01T20:49:30.760Z,10.30
2017-10-01T20:51:59.421Z,10.30
2017-10-01T20:54:27.725Z,10.30
2017-10-01T20:56:55.187Z,10.30
2017-10-01T20:59:22.627Z,10.30
2017-10-01T21:01:50.095Z,10.20
2017-10-01T21:04:17.538Z,10.20
2017-10-01T21:06:44.996Z,10.20
2017-10-01T21:09:12.440Z,10.20
2017-10-01T21:11:39.887Z,10.20
2017-10-01T21:14:07.323Z,10.30
2017-10-01T21:16:34.775Z,10.20
2017-10-01T21:19:02.210Z,10.20
2017-10-01T21:21:29.663Z,10.20
2017-10-01T21:23:57.111Z,10.20
2017-10-01T21:26:24.584Z,10.20
2017-10-01T21:28:52.030Z,10.20
2017-10-01T21:31:19.476Z,10.10
2017-10-01T21:33:47.047Z,10.10
2017-10-01T21:36:14.492Z,10.10
2017-10-01T21:38:41.938Z,10.00
2017-10-01T21:41:09.383Z,10.00
2017-10-01T21:43:36.843Z,10.10
2017-10-01T21:46:04.283Z,10.00
2017-10-01T21:48:31.738Z,10.00
2017-10-01T21:50:59.179Z,10.00
2017-10-01T21:53:27.402Z,10.00
2017-10-01T21:55:54.847Z,9.90
2017-10-01T21:58:22.286Z,10.00
2017-10-01T22:00:49.715Z,10.00
2017-10-01T22:03:17.935Z,10.00
2017-10-01T22:05:45.379Z,10.00
2017-10-01T22:08:12.837Z,9.90
2017-10-01T22:10:40.274Z,9.90
2017-10-01T22:13:07.715Z,9.90
2017-10-01T22:15:36.022Z,10.00
2017-10-01T22:18:03.713Z,10.00
2017-10-01T22:20:31.399Z,10.10
2017-10-01T22:22:58.870Z,10.10
2017-10-01T22:25:27.102Z,10.30
2017-10-01T22:27:54.562Z,10.20
2017-10-01T22:30:22.279Z,10.20
2017-10-01T22:32:50.483Z,10.20
2017-10-01T22:35:17.939Z,10.20
2017-10-01T22:37:45.379Z,10.20
2017-10-01T22:40:12.835Z,10.20
2017-10-01T22:42:40.278Z,10.20
2017-10-01T22:45:07.718Z,10.10
2017-10-01T22:47:35.935Z,10.20
2017-10-01T22:50:03.379Z,10.20
2017-10-01T22:52:30.814Z,10.20
2017-10-01T22:54:58.278Z,10.10
2017-10-01T22:57:25.714Z,10.10
2017-10-01T22:59:53.918Z,10.10
2017-10-01T23:02:21.358Z,10.00
2017-10-01T23:04:48.796Z,10.10
2017-10-01T23:07:17.007Z,10.10
2017-10-01T23:09:44.458Z,10.00
2017-10-01T23:12:11.916Z,10.10
2017-10-01T23:14:39.359Z,10.20
2017-10-01T23:17:06.816Z,10.20
2017-10-01T23:19:34.255Z,10.20
2017-10-01T23:22:02.470Z,10.20
2017-10-01T23:24:29.914Z,10.20
2017-10-01T23:26:57.372Z,10.20
2017-10-01T23:29:24.810Z,10.20
2017-10-01T23:31:52.254Z,10.20
2017-10-01T23:34:20.454Z,10.10
2017-10-01T23:36:47.910Z,10.10
2017-10-01T23:39:15.346Z,10.20
2017-10-01T23:41:43.570Z,10.00
2017-10-01T23:44:11.006Z,10.00
2017-10-01T23:46:38.452Z,10.00
2017-10-01T23:49:05.910Z,10.00
2017-10-01T23:51:33.367Z,10.00
2017-10-01T23:54:00.820Z,9.90
2017-10-01T23:56:28.254Z,10.00
2017-10-01T23:58:55.700Z,10.00
